sensor_id;sensor_type;location;lat;lon;timestamp;temperature;humidity
47382;DHT22;33128;51.580;5.170;2023-12-20T00:01:20;9.50;99.90
47382;DHT22;33128;51.580;5.170;2023-12-20T00:03:46;9.80;99.90
47382;DHT22;33128;51.580;5.170;2023-12-20T00:06:12;9.80;99.90
47382;DHT22;33128;51.580;5.170;2023-12-20T00:08:40;9.70;99.90
47382;DHT22;33128;51.580;5.170;2023-12-20T00:11:06;9.90;99.90
47382;DHT22;33128;51.580;5.170;2023-12-20T00:13:31;9.90;99.90
47382;DHT22;33128;51.580;5.170;2023-12-20T00:15:57;10.00;99.90
47382;DHT22;33128;51.580;5.170;2023-12-20T00:18:23;9.90;99.90
47382;DHT22;33128;51.580;5.170;2023-12-20T00:20:48;9.80;99.90
47382;DHT22;33128;51.580;5.170;2023-12-20T00:23:14;9.70;99.90
47382;DHT22;33128;51.580;5.170;2023-12-20T00:25:40;9.70;99.90
47382;DHT22;33128;51.580;5.170;2023-12-20T00:28:09;9.70;99.90
47382;DHT22;33128;51.580;5.170;2023-12-20T00:30:34;9.90;99.90
47382;DHT22;33128;51.580;5.170;2023-12-20T00:33:00;10.00;99.90
47382;DHT22;33128;51.580;5.170;2023-12-20T00:35:25;9.90;99.90
47382;DHT22;33128;51.580;5.170;2023-12-20T00:37:51;9.90;99.90
47382;DHT22;33128;51.580;5.170;2023-12-20T00:40:16;9.80;99.90
47382;DHT22;33128;51.580;5.170;2023-12-20T00:42:42;9.70;99.90
47382;DHT22;33128;51.580;5.170;2023-12-20T00:45:08;9.90;99.90
47382;DHT22;33128;51.580;5.170;2023-12-20T00:47:33;9.90;99.90
47382;DHT22;33128;51.580;5.170;2023-12-20T00:49:59;9.90;99.90
47382;DHT22;33128;51.580;5.170;2023-12-20T00:52:24;9.80;99.90
47382;DHT22;33128;51.580;5.170;2023-12-20T00:54:50;9.80;99.90
47382;DHT22;33128;51.580;5.170;2023-12-20T00:57:16;9.80;99.90
47382;DHT22;33128;51.580;5.170;2023-12-20T00:59:42;9.80;99.90
47382;DHT22;33128;51.580;5.170;2023-12-20T01:02:10;9.90;99.90
47382;DHT22;33128;51.580;5.170;2023-12-20T01:04:36;10.10;99.90
47382;DHT22;33128;51.580;5.170;2023-12-20T01:07:01;10.10;99.90
47382;DHT22;33128;51.580;5.170;2023-12-20T01:09:30;10.10;99.90
47382;DHT22;33128;51.580;5.170;2023-12-20T01:11:56;10.20;99.90
47382;DHT22;33128;51.580;5.170;2023-12-20T01:14:21;10.10;99.90
47382;DHT22;33128;51.580;5.170;2023-12-20T01:16:47;10.10;99.90
47382;DHT22;33128;51.580;5.170;2023-12-20T01:19:13;10.00;99.90
47382;DHT22;33128;51.580;5.170;2023-12-20T01:21:41;10.00;99.90
47382;DHT22;33128;51.580;5.170;2023-12-20T01:24:07;10.00;99.90
47382;DHT22;33128;51.580;5.170;2023-12-20T01:26:33;9.90;99.90
47382;DHT22;33128;51.580;5.170;2023-12-20T01:28:58;10.00;99.90
47382;DHT22;33128;51.580;5.170;2023-12-20T01:31:24;9.90;99.90
47382;DHT22;33128;51.580;5.170;2023-12-20T01:33:49;10.00;99.90
47382;DHT22;33128;51.580;5.170;2023-12-20T01:36:15;9.90;99.90
47382;DHT22;33128;51.580;5.170;2023-12-20T01:38:41;10.00;99.90
47382;DHT22;33128;51.580;5.170;2023-12-20T01:41:09;9.90;99.90
47382;DHT22;33128;51.580;5.170;2023-12-20T01:43:34;9.80;99.90
47382;DHT22;33128;51.580;5.170;2023-12-20T01:46:00;9.90;99.90
47382;DHT22;33128;51.580;5.170;2023-12-20T01:48:27;9.90;99.90
47382;DHT22;33128;51.580;5.170;2023-12-20T01:50:53;9.90;99.90
47382;DHT22;33128;51.580;5.170;2023-12-20T01:53:21;9.90;99.90
47382;DHT22;33128;51.580;5.170;2023-12-20T01:55:49;9.80;99.90
47382;DHT22;33128;51.580;5.170;2023-12-20T01:58:16;9.80;99.90
47382;DHT22;33128;51.580;5.170;2023-12-20T02:00:42;9.90;99.90
47382;DHT22;33128;51.580;5.170;2023-12-20T02:03:08;9.60;99.90
47382;DHT22;33128;51.580;5.170;2023-12-20T02:05:34;9.70;99.90
47382;DHT22;33128;51.580;5.170;2023-12-20T02:08:00;9.80;99.90
47382;DHT22;33128;51.580;5.170;2023-12-20T02:10:30;9.90;99.90
47382;DHT22;33128;51.580;5.170;2023-12-20T02:12:55;9.90;99.90
47382;DHT22;33128;51.580;5.170;2023-12-20T02:15:21;10.00;99.90
47382;DHT22;33128;51.580;5.170;2023-12-20T02:17:47;9.80;99.90
47382;DHT22;33128;51.580;5.170;2023-12-20T02:20:13;9.70;99.90
47382;DHT22;33128;51.580;5.170;2023-12-20T02:22:42;9.90;99.90
47382;DHT22;33128;51.580;5.170;2023-12-20T02:25:08;9.60;99.90
47382;DHT22;33128;51.580;5.170;2023-12-20T02:27:34;9.70;99.90
47382;DHT22;33128;51.580;5.170;2023-12-20T02:30:00;9.90;99.90
47382;DHT22;33128;51.580;5.170;2023-12-20T02:32:26;9.90;99.90
47382;DHT22;33128;51.580;5.170;2023-12-20T02:34:59;9.90;99.90
47382;DHT22;33128;51.580;5.170;2023-12-20T02:37:25;9.90;99.90
47382;DHT22;33128;51.580;5.170;2023-12-20T02:39:50;10.00;99.90
47382;DHT22;33128;51.580;5.170;2023-12-20T02:42:16;10.00;99.90
47382;DHT22;33128;51.580;5.170;2023-12-20T02:44:41;10.00;99.90
47382;DHT22;33128;51.580;5.170;2023-12-20T02:47:10;10.00;99.90
47382;DHT22;33128;51.580;5.170;2023-12-20T02:49:36;9.90;99.90
47382;DHT22;33128;51.580;5.170;2023-12-20T02:52:01;9.90;99.90
47382;DHT22;33128;51.580;5.170;2023-12-20T02:54:27;10.00;99.90
47382;DHT22;33128;51.580;5.170;2023-12-20T02:56:55;10.00;99.90
47382;DHT22;33128;51.580;5.170;2023-12-20T02:59:21;9.90;99.90
47382;DHT22;33128;51.580;5.170;2023-12-20T03:01:46;9.80;99.90
47382;DHT22;33128;51.580;5.170;2023-12-20T03:04:12;9.80;99.90
47382;DHT22;33128;51.580;5.170;2023-12-20T03:06:38;9.90;99.90
47382;DHT22;33128;51.580;5.170;2023-12-20T03:09:07;9.90;99.90
47382;DHT22;33128;51.580;5.170;2023-12-20T03:11:32;9.80;99.90
47382;DHT22;33128;51.580;5.170;2023-12-20T03:13:58;9.90;99.90
47382;DHT22;33128;51.580;5.170;2023-12-20T03:16:23;9.90;99.90
47382;DHT22;33128;51.580;5.170;2023-12-20T03:18:49;9.90;99.90
47382;DHT22;33128;51.580;5.170;2023-12-20T03:21:15;9.80;99.90
47382;DHT22;33128;51.580;5.170;2023-12-20T03:23:41;9.90;99.90
47382;DHT22;33128;51.580;5.170;2023-12-20T03:26:07;9.80;99.90
47382;DHT22;33128;51.580;5.170;2023-12-20T03:28:33;9.90;99.90
47382;DHT22;33128;51.580;5.170;2023-12-20T03:31:00;9.90;99.90
47382;DHT22;33128;51.580;5.170;2023-12-20T03:33:25;9.90;99.90
47382;DHT22;33128;51.580;5.170;2023-12-20T03:35:51;9.90;99.90
47382;DHT22;33128;51.580;5.170;2023-12-20T03:38:16;10.00;99.90
47382;DHT22;33128;51.580;5.170;2023-12-20T03:40:42;10.00;99.90
47382;DHT22;33128;51.580;5.170;2023-12-20T03:43:08;9.90;99.90
47382;DHT22;33128;51.580;5.170;2023-12-20T03:45:33;10.00;99.90
47382;DHT22;33128;51.580;5.170;2023-12-20T03:47:59;9.90;99.90
47382;DHT22;33128;51.580;5.170;2023-12-20T03:50:25;9.90;99.90
47382;DHT22;33128;51.580;5.170;2023-12-20T03:52:51;10.00;99.90
47382;DHT22;33128;51.580;5.170;2023-12-20T03:55:17;10.00;99.90
47382;DHT22;33128;51.580;5.170;2023-12-20T03:57:42;10.20;99.90
47382;DHT22;33128;51.580;5.170;2023-12-20T04:00:08;10.20;99.90
47382;DHT22;33128;51.580;5.170;2023-12-20T04:02:38;10.20;99.90
47382;DHT22;33128;51.580;5.170;2023-12-20T04:05:04;10.20;99.90
47382;DHT22;33128;51.580;5.170;2023-12-20T04:07:30;10.20;99.90
47382;DHT22;33128;51.580;5.170;2023-12-20T04:09:56;10.10;99.90
47382;DHT22;33128;51.580;5.170;2023-12-20T04:12:24;10.10;99.90
47382;DHT22;33128;51.580;5.170;2023-12-20T04:14:51;10.10;99.90
47382;DHT22;33128;51.580;5.170;2023-12-20T04:17:17;10.10;99.90
47382;DHT22;33128;51.580;5.170;2023-12-20T04:19:43;10.10;99.90
47382;DHT22;33128;51.580;5.170;2023-12-20T04:22:09;10.10;99.90
47382;DHT22;33128;51.580;5.170;2023-12-20T04:24:34;10.00;99.90
47382;DHT22;33128;51.580;5.170;2023-12-20T04:27:00;10.10;99.90
47382;DHT22;33128;51.580;5.170;2023-12-20T04:29:26;10.10;99.90
47382;DHT22;33128;51.580;5.170;2023-12-20T04:31:52;10.10;99.90
47382;DHT22;33128;51.580;5.170;2023-12-20T04:34:17;10.20;99.90
47382;DHT22;33128;51.580;5.170;2023-12-20T04:36:43;10.30;99.90
47382;DHT22;33128;51.580;5.170;2023-12-20T04:39:09;10.20;99.90
47382;DHT22;33128;51.580;5.170;2023-12-20T04:41:35;10.30;99.90
47382;DHT22;33128;51.580;5.170;2023-12-20T04:44:01;10.20;99.90
47382;DHT22;33128;51.580;5.170;2023-12-20T04:46:27;10.20;99.90
47382;DHT22;33128;51.580;5.170;2023-12-20T04:48:55;10.10;99.90
47382;DHT22;33128;51.580;5.170;2023-12-20T04:51:21;10.10;99.90
47382;DHT22;33128;51.580;5.170;2023-12-20T04:53:47;10.20;99.90
47382;DHT22;33128;51.580;5.170;2023-12-20T04:56:12;10.20;99.90
47382;DHT22;33128;51.580;5.170;2023-12-20T04:58:38;10.10;99.90
47382;DHT22;33128;51.580;5.170;2023-12-20T05:01:08;10.20;99.90
47382;DHT22;33128;51.580;5.170;2023-12-20T05:03:33;10.20;99.90
47382;DHT22;33128;51.580;5.170;2023-12-20T05:05:59;10.20;99.90
47382;DHT22;33128;51.580;5.170;2023-12-20T05:08:24;10.20;99.90
47382;DHT22;33128;51.580;5.170;2023-12-20T05:10:56;10.10;99.90
47382;DHT22;33128;51.580;5.170;2023-12-20T05:13:22;10.10;99.90
47382;DHT22;33128;51.580;5.170;2023-12-20T05:15:47;10.10;99.90
47382;DHT22;33128;51.580;5.170;2023-12-20T05:18:13;10.30;99.90
47382;DHT22;33128;51.580;5.170;2023-12-20T05:20:40;10.20;99.90
47382;DHT22;33128;51.580;5.170;2023-12-20T05:23:08;10.20;99.90
47382;DHT22;33128;51.580;5.170;2023-12-20T05:25:33;10.30;99.90
47382;DHT22;33128;51.580;5.170;2023-12-20T05:27:59;10.10;99.90
47382;DHT22;33128;51.580;5.170;2023-12-20T05:30:24;10.00;99.90
47382;DHT22;33128;51.580;5.170;2023-12-20T05:32:50;10.00;99.90
47382;DHT22;33128;51.580;5.170;2023-12-20T05:35:16;10.10;99.90
47382;DHT22;33128;51.580;5.170;2023-12-20T05:37:42;10.00;99.90
47382;DHT22;33128;51.580;5.170;2023-12-20T05:40:08;9.90;99.90
47382;DHT22;33128;51.580;5.170;2023-12-20T05:42:37;9.90;99.90
47382;DHT22;33128;51.580;5.170;2023-12-20T05:45:05;10.00;99.90
47382;DHT22;33128;51.580;5.170;2023-12-20T05:47:31;9.90;99.90
47382;DHT22;33128;51.580;5.170;2023-12-20T05:49:57;9.70;99.90
47382;DHT22;33128;51.580;5.170;2023-12-20T05:52:22;9.80;99.90
47382;DHT22;33128;51.580;5.170;2023-12-20T05:54:48;9.80;99.90
47382;DHT22;33128;51.580;5.170;2023-12-20T05:57:14;9.80;99.90
47382;DHT22;33128;51.580;5.170;2023-12-20T05:59:39;9.70;99.90
47382;DHT22;33128;51.580;5.170;2023-12-20T06:02:05;9.80;99.90
47382;DHT22;33128;51.580;5.170;2023-12-20T06:04:31;9.80;99.90
47382;DHT22;33128;51.580;5.170;2023-12-20T06:06:56;9.60;99.90
47382;DHT22;33128;51.580;5.170;2023-12-20T06:09:27;9.00;99.90
47382;DHT22;33128;51.580;5.170;2023-12-20T06:11:52;9.60;99.90
47382;DHT22;33128;51.580;5.170;2023-12-20T06:14:18;9.60;99.90
47382;DHT22;33128;51.580;5.170;2023-12-20T06:16:45;9.70;99.90
47382;DHT22;33128;51.580;5.170;2023-12-20T06:19:11;9.60;99.90
47382;DHT22;33128;51.580;5.170;2023-12-20T06:21:36;9.60;99.90
47382;DHT22;33128;51.580;5.170;2023-12-20T06:24:02;9.60;99.90
47382;DHT22;33128;51.580;5.170;2023-12-20T06:26:27;9.50;99.90
47382;DHT22;33128;51.580;5.170;2023-12-20T06:28:53;9.60;99.90
47382;DHT22;33128;51.580;5.170;2023-12-20T06:31:21;9.50;99.90
47382;DHT22;33128;51.580;5.170;2023-12-20T06:33:47;9.60;99.90
47382;DHT22;33128;51.580;5.170;2023-12-20T06:36:15;9.60;99.90
47382;DHT22;33128;51.580;5.170;2023-12-20T06:38:40;9.50;99.90
47382;DHT22;33128;51.580;5.170;2023-12-20T06:41:07;9.60;99.90
47382;DHT22;33128;51.580;5.170;2023-12-20T06:43:33;9.50;99.90
47382;DHT22;33128;51.580;5.170;2023-12-20T06:46:00;9.50;99.90
47382;DHT22;33128;51.580;5.170;2023-12-20T06:48:26;9.40;99.90
47382;DHT22;33128;51.580;5.170;2023-12-20T06:50:51;9.50;99.90
47382;DHT22;33128;51.580;5.170;2023-12-20T06:53:17;9.40;99.90
47382;DHT22;33128;51.580;5.170;2023-12-20T06:55:43;9.40;99.90
47382;DHT22;33128;51.580;5.170;2023-12-20T06:58:08;9.50;99.90
47382;DHT22;33128;51.580;5.170;2023-12-20T07:00:34;9.50;99.90
47382;DHT22;33128;51.580;5.170;2023-12-20T07:02:59;9.50;99.90
47382;DHT22;33128;51.580;5.170;2023-12-20T07:05:25;9.50;99.90
47382;DHT22;33128;51.580;5.170;2023-12-20T07:07:52;9.60;99.90
47382;DHT22;33128;51.580;5.170;2023-12-20T07:10:17;9.50;99.90
47382;DHT22;33128;51.580;5.170;2023-12-20T07:12:43;9.50;99.90
47382;DHT22;33128;51.580;5.170;2023-12-20T07:15:09;9.60;99.90
47382;DHT22;33128;51.580;5.170;2023-12-20T07:17:35;9.60;99.90
47382;DHT22;33128;51.580;5.170;2023-12-20T07:20:01;9.50;99.90
47382;DHT22;33128;51.580;5.170;2023-12-20T07:22:30;9.70;99.90
47382;DHT22;33128;51.580;5.170;2023-12-20T07:24:59;9.60;99.90
47382;DHT22;33128;51.580;5.170;2023-12-20T07:27:24;9.70;99.90
47382;DHT22;33128;51.580;5.170;2023-12-20T07:29:50;9.60;99.90
47382;DHT22;33128;51.580;5.170;2023-12-20T07:32:15;9.60;99.90
47382;DHT22;33128;51.580;5.170;2023-12-20T07:34:41;9.70;99.90
47382;DHT22;33128;51.580;5.170;2023-12-20T07:37:07;10.10;99.90
47382;DHT22;33128;51.580;5.170;2023-12-20T07:39:35;10.50;99.90
47382;DHT22;33128;51.580;5.170;2023-12-20T07:42:01;10.80;99.90
47382;DHT22;33128;51.580;5.170;2023-12-20T07:44:26;11.00;99.90
47382;DHT22;33128;51.580;5.170;2023-12-20T07:46:52;11.20;99.90
47382;DHT22;33128;51.580;5.170;2023-12-20T07:49:19;11.30;99.90
47382;DHT22;33128;51.580;5.170;2023-12-20T07:51:44;11.50;99.90
47382;DHT22;33128;51.580;5.170;2023-12-20T07:54:10;11.60;99.90
47382;DHT22;33128;51.580;5.170;2023-12-20T07:56:35;11.70;99.90
47382;DHT22;33128;51.580;5.170;2023-12-20T07:59:01;11.80;99.90
47382;DHT22;33128;51.580;5.170;2023-12-20T08:01:33;11.80;99.90
47382;DHT22;33128;51.580;5.170;2023-12-20T08:03:58;11.90;99.90
47382;DHT22;33128;51.580;5.170;2023-12-20T08:06:24;11.90;99.90
47382;DHT22;33128;51.580;5.170;2023-12-20T08:08:49;12.00;99.90
47382;DHT22;33128;51.580;5.170;2023-12-20T08:11:15;12.00;99.90
47382;DHT22;33128;51.580;5.170;2023-12-20T08:13:41;12.00;99.90
47382;DHT22;33128;51.580;5.170;2023-12-20T08:16:09;12.10;99.90
47382;DHT22;33128;51.580;5.170;2023-12-20T08:18:36;12.10;99.90
47382;DHT22;33128;51.580;5.170;2023-12-20T08:21:02;12.10;99.90
47382;DHT22;33128;51.580;5.170;2023-12-20T08:23:28;12.10;99.90
47382;DHT22;33128;51.580;5.170;2023-12-20T08:25:53;12.10;99.90
47382;DHT22;33128;51.580;5.170;2023-12-20T08:28:19;12.10;99.90
47382;DHT22;33128;51.580;5.170;2023-12-20T08:30:44;12.20;99.90
47382;DHT22;33128;51.580;5.170;2023-12-20T08:33:10;12.20;99.90
47382;DHT22;33128;51.580;5.170;2023-12-20T08:35:39;12.20;99.90
47382;DHT22;33128;51.580;5.170;2023-12-20T08:38:05;12.20;99.90
47382;DHT22;33128;51.580;5.170;2023-12-20T08:40:33;12.20;99.90
47382;DHT22;33128;51.580;5.170;2023-12-20T08:42:59;12.20;99.90
47382;DHT22;33128;51.580;5.170;2023-12-20T08:45:24;12.20;99.90
47382;DHT22;33128;51.580;5.170;2023-12-20T08:47:50;12.20;99.90
47382;DHT22;33128;51.580;5.170;2023-12-20T08:50:16;12.20;99.90
47382;DHT22;33128;51.580;5.170;2023-12-20T08:52:41;12.20;99.90
47382;DHT22;33128;51.580;5.170;2023-12-20T08:55:10;12.30;99.90
47382;DHT22;33128;51.580;5.170;2023-12-20T08:57:36;12.30;99.90
47382;DHT22;33128;51.580;5.170;2023-12-20T09:00:02;12.30;99.90
47382;DHT22;33128;51.580;5.170;2023-12-20T09:02:28;12.30;99.90
47382;DHT22;33128;51.580;5.170;2023-12-20T09:04:54;12.30;99.90
47382;DHT22;33128;51.580;5.170;2023-12-20T09:07:24;12.30;99.90
47382;DHT22;33128;51.580;5.170;2023-12-20T09:09:50;12.30;99.90
47382;DHT22;33128;51.580;5.170;2023-12-20T09:12:18;12.30;99.90
47382;DHT22;33128;51.580;5.170;2023-12-20T09:14:44;12.30;99.90
47382;DHT22;33128;51.580;5.170;2023-12-20T09:17:09;12.40;99.90
47382;DHT22;33128;51.580;5.170;2023-12-20T09:19:37;12.40;99.90
47382;DHT22;33128;51.580;5.170;2023-12-20T09:22:02;12.40;99.90
47382;DHT22;33128;51.580;5.170;2023-12-20T09:24:29;12.40;99.90
47382;DHT22;33128;51.580;5.170;2023-12-20T09:26:55;12.50;99.90
47382;DHT22;33128;51.580;5.170;2023-12-20T09:29:23;12.50;99.90
47382;DHT22;33128;51.580;5.170;2023-12-20T09:31:50;12.50;99.90
47382;DHT22;33128;51.580;5.170;2023-12-20T09:34:16;12.50;99.90
47382;DHT22;33128;51.580;5.170;2023-12-20T09:36:42;12.50;99.90
47382;DHT22;33128;51.580;5.170;2023-12-20T09:39:17;12.60;99.90
47382;DHT22;33128;51.580;5.170;2023-12-20T09:41:51;12.60;99.90
47382;DHT22;33128;51.580;5.170;2023-12-20T09:44:22;12.60;99.90
47382;DHT22;33128;51.580;5.170;2023-12-20T09:46:50;12.60;99.90
47382;DHT22;33128;51.580;5.170;2023-12-20T09:49:20;12.60;99.90
47382;DHT22;33128;51.580;5.170;2023-12-20T09:51:47;12.60;99.90
47382;DHT22;33128;51.580;5.170;2023-12-20T09:54:18;12.60;99.90
47382;DHT22;33128;51.580;5.170;2023-12-20T09:56:45;12.60;99.90
47382;DHT22;33128;51.580;5.170;2023-12-20T09:59:10;12.60;99.90
47382;DHT22;33128;51.580;5.170;2023-12-20T10:01:38;12.60;99.90
47382;DHT22;33128;51.580;5.170;2023-12-20T10:04:09;12.60;99.90
47382;DHT22;33128;51.580;5.170;2023-12-20T10:06:41;12.60;99.90
47382;DHT22;33128;51.580;5.170;2023-12-20T10:09:08;12.60;99.90
47382;DHT22;33128;51.580;5.170;2023-12-20T10:11:37;12.70;99.90
47382;DHT22;33128;51.580;5.170;2023-12-20T10:14:04;12.70;99.90
47382;DHT22;33128;51.580;5.170;2023-12-20T10:16:33;12.70;99.90
47382;DHT22;33128;51.580;5.170;2023-12-20T10:19:00;12.70;99.90
47382;DHT22;33128;51.580;5.170;2023-12-20T10:21:29;12.70;99.90
47382;DHT22;33128;51.580;5.170;2023-12-20T10:23:58;12.70;99.90
47382;DHT22;33128;51.580;5.170;2023-12-20T10:26:27;12.80;99.90
47382;DHT22;33128;51.580;5.170;2023-12-20T10:28:54;12.80;99.90
47382;DHT22;33128;51.580;5.170;2023-12-20T10:31:35;12.80;99.90
47382;DHT22;33128;51.580;5.170;2023-12-20T10:34:02;12.80;99.90
47382;DHT22;33128;51.580;5.170;2023-12-20T10:36:32;12.80;99.90
47382;DHT22;33128;51.580;5.170;2023-12-20T10:38:58;12.80;99.90
47382;DHT22;33128;51.580;5.170;2023-12-20T10:41:29;12.90;99.90
47382;DHT22;33128;51.580;5.170;2023-12-20T10:44:04;12.90;99.90
47382;DHT22;33128;51.580;5.170;2023-12-20T10:46:31;12.90;99.90
47382;DHT22;33128;51.580;5.170;2023-12-20T10:49:03;12.90;99.90
47382;DHT22;33128;51.580;5.170;2023-12-20T10:51:31;12.90;99.90
47382;DHT22;33128;51.580;5.170;2023-12-20T10:53:57;13.00;99.90
47382;DHT22;33128;51.580;5.170;2023-12-20T10:56:23;13.00;99.90
47382;DHT22;33128;51.580;5.170;2023-12-20T10:58:51;13.00;99.90
47382;DHT22;33128;51.580;5.170;2023-12-20T11:01:18;13.00;99.90
47382;DHT22;33128;51.580;5.170;2023-12-20T11:04:06;13.00;99.90
47382;DHT22;33128;51.580;5.170;2023-12-20T11:06:47;13.00;99.90
47382;DHT22;33128;51.580;5.170;2023-12-20T11:09:24;13.10;99.90
47382;DHT22;33128;51.580;5.170;2023-12-20T11:12:10;13.00;99.90
47382;DHT22;33128;51.580;5.170;2023-12-20T11:14:47;13.00;99.90
47382;DHT22;33128;51.580;5.170;2023-12-20T11:17:13;13.00;99.90
47382;DHT22;33128;51.580;5.170;2023-12-20T11:22:32;13.00;99.90
47382;DHT22;33128;51.580;5.170;2023-12-20T11:25:04;13.10;99.90
47382;DHT22;33128;51.580;5.170;2023-12-20T11:27:30;13.10;99.90
47382;DHT22;33128;51.580;5.170;2023-12-20T11:29:57;13.10;99.90
47382;DHT22;33128;51.580;5.170;2023-12-20T11:34:55;13.10;99.90
47382;DHT22;33128;51.580;5.170;2023-12-20T11:37:22;13.10;99.90
47382;DHT22;33128;51.580;5.170;2023-12-20T11:39:55;13.10;99.90
47382;DHT22;33128;51.580;5.170;2023-12-20T11:42:21;13.10;99.90
47382;DHT22;33128;51.580;5.170;2023-12-20T11:44:47;13.20;99.90
47382;DHT22;33128;51.580;5.170;2023-12-20T11:47:13;13.20;99.90
47382;DHT22;33128;51.580;5.170;2023-12-20T11:49:41;13.20;99.90
47382;DHT22;33128;51.580;5.170;2023-12-20T11:52:06;13.10;99.90
47382;DHT22;33128;51.580;5.170;2023-12-20T11:54:32;13.20;99.90
47382;DHT22;33128;51.580;5.170;2023-12-20T11:56:58;13.20;99.90
47382;DHT22;33128;51.580;5.170;2023-12-20T11:59:26;13.20;99.90
47382;DHT22;33128;51.580;5.170;2023-12-20T12:01:52;13.20;99.90
47382;DHT22;33128;51.580;5.170;2023-12-20T12:04:17;13.20;99.90
47382;DHT22;33128;51.580;5.170;2023-12-20T12:06:44;13.20;99.90
47382;DHT22;33128;51.580;5.170;2023-12-20T12:09:10;13.20;99.90
47382;DHT22;33128;51.580;5.170;2023-12-20T12:11:36;13.20;99.90
47382;DHT22;33128;51.580;5.170;2023-12-20T12:14:01;13.20;99.90
47382;DHT22;33128;51.580;5.170;2023-12-20T12:16:27;13.20;99.90
47382;DHT22;33128;51.580;5.170;2023-12-20T12:18:57;13.20;99.90
47382;DHT22;33128;51.580;5.170;2023-12-20T12:21:23;13.20;99.90
47382;DHT22;33128;51.580;5.170;2023-12-20T12:23:48;13.20;99.90
47382;DHT22;33128;51.580;5.170;2023-12-20T12:26:14;13.20;99.90
47382;DHT22;33128;51.580;5.170;2023-12-20T12:28:40;13.20;99.90
47382;DHT22;33128;51.580;5.170;2023-12-20T12:31:07;13.20;99.90
47382;DHT22;33128;51.580;5.170;2023-12-20T12:33:33;13.20;99.90
47382;DHT22;33128;51.580;5.170;2023-12-20T12:36:00;13.30;99.90
47382;DHT22;33128;51.580;5.170;2023-12-20T12:38:26;13.30;99.90
47382;DHT22;33128;51.580;5.170;2023-12-20T12:40:54;13.30;99.90
47382;DHT22;33128;51.580;5.170;2023-12-20T12:43:20;13.30;99.90
47382;DHT22;33128;51.580;5.170;2023-12-20T12:45:48;13.30;99.90
47382;DHT22;33128;51.580;5.170;2023-12-20T12:48:14;13.30;99.90
47382;DHT22;33128;51.580;5.170;2023-12-20T12:50:40;13.40;99.90
47382;DHT22;33128;51.580;5.170;2023-12-20T12:53:06;13.30;99.90
47382;DHT22;33128;51.580;5.170;2023-12-20T12:55:31;13.40;99.90
47382;DHT22;33128;51.580;5.170;2023-12-20T12:57:57;13.40;99.90
47382;DHT22;33128;51.580;5.170;2023-12-20T13:00:22;13.40;99.90
47382;DHT22;33128;51.580;5.170;2023-12-20T13:02:49;13.40;99.90
47382;DHT22;33128;51.580;5.170;2023-12-20T13:05:15;13.40;99.90
47382;DHT22;33128;51.580;5.170;2023-12-20T13:07:40;13.40;99.90
47382;DHT22;33128;51.580;5.170;2023-12-20T13:10:09;13.40;99.90
47382;DHT22;33128;51.580;5.170;2023-12-20T13:12:34;13.40;99.90
47382;DHT22;33128;51.580;5.170;2023-12-20T13:15:00;13.40;99.90
47382;DHT22;33128;51.580;5.170;2023-12-20T13:17:26;13.40;99.90
47382;DHT22;33128;51.580;5.170;2023-12-20T13:19:51;13.40;99.90
47382;DHT22;33128;51.580;5.170;2023-12-20T13:22:17;13.40;99.90
47382;DHT22;33128;51.580;5.170;2023-12-20T13:24:42;13.40;99.90
47382;DHT22;33128;51.580;5.170;2023-12-20T13:27:10;13.40;99.90
47382;DHT22;33128;51.580;5.170;2023-12-20T13:29:35;13.40;99.90
47382;DHT22;33128;51.580;5.170;2023-12-20T13:32:21;13.40;99.90
47382;DHT22;33128;51.580;5.170;2023-12-20T13:34:47;13.40;99.90
47382;DHT22;33128;51.580;5.170;2023-12-20T13:37:13;13.40;99.90
47382;DHT22;33128;51.580;5.170;2023-12-20T13:39:39;13.40;99.90
47382;DHT22;33128;51.580;5.170;2023-12-20T13:42:05;13.50;99.90
47382;DHT22;33128;51.580;5.170;2023-12-20T13:44:30;13.50;99.90
47382;DHT22;33128;51.580;5.170;2023-12-20T13:46:56;13.50;99.90
47382;DHT22;33128;51.580;5.170;2023-12-20T13:49:24;13.50;99.90
47382;DHT22;33128;51.580;5.170;2023-12-20T13:51:51;13.40;99.90
47382;DHT22;33128;51.580;5.170;2023-12-20T13:54:16;13.40;99.90
47382;DHT22;33128;51.580;5.170;2023-12-20T13:56:48;13.40;99.90
47382;DHT22;33128;51.580;5.170;2023-12-20T13:59:14;13.50;99.90
47382;DHT22;33128;51.580;5.170;2023-12-20T14:01:40;13.50;99.90
47382;DHT22;33128;51.580;5.170;2023-12-20T14:04:08;13.50;99.90
47382;DHT22;33128;51.580;5.170;2023-12-20T14:06:34;13.50;99.90
47382;DHT22;33128;51.580;5.170;2023-12-20T14:08:59;13.50;99.90
47382;DHT22;33128;51.580;5.170;2023-12-20T14:11:28;13.50;99.90
47382;DHT22;33128;51.580;5.170;2023-12-20T14:13:54;13.50;99.90
47382;DHT22;33128;51.580;5.170;2023-12-20T14:16:26;13.50;99.90
47382;DHT22;33128;51.580;5.170;2023-12-20T14:18:51;13.50;99.90
47382;DHT22;33128;51.580;5.170;2023-12-20T14:21:20;13.60;99.90
47382;DHT22;33128;51.580;5.170;2023-12-20T14:23:46;13.60;99.90
47382;DHT22;33128;51.580;5.170;2023-12-20T14:26:14;13.60;99.90
47382;DHT22;33128;51.580;5.170;2023-12-20T14:28:43;13.60;99.90
47382;DHT22;33128;51.580;5.170;2023-12-20T14:31:09;13.60;99.90
47382;DHT22;33128;51.580;5.170;2023-12-20T14:33:36;13.60;99.90
47382;DHT22;33128;51.580;5.170;2023-12-20T14:36:04;13.60;99.90
47382;DHT22;33128;51.580;5.170;2023-12-20T14:38:31;13.60;99.90
47382;DHT22;33128;51.580;5.170;2023-12-20T14:40:56;13.60;99.90
47382;DHT22;33128;51.580;5.170;2023-12-20T14:43:23;13.60;99.90
47382;DHT22;33128;51.580;5.170;2023-12-20T14:45:48;13.60;99.90
47382;DHT22;33128;51.580;5.170;2023-12-20T14:48:14;13.60;99.90
47382;DHT22;33128;51.580;5.170;2023-12-20T14:50:39;13.60;99.90
47382;DHT22;33128;51.580;5.170;2023-12-20T14:53:08;13.60;99.90
47382;DHT22;33128;51.580;5.170;2023-12-20T14:55:34;13.60;99.90
47382;DHT22;33128;51.580;5.170;2023-12-20T14:58:00;13.60;99.90
47382;DHT22;33128;51.580;5.170;2023-12-20T15:00:26;13.60;99.90
47382;DHT22;33128;51.580;5.170;2023-12-20T15:02:51;13.60;99.90
47382;DHT22;33128;51.580;5.170;2023-12-20T15:05:19;13.60;99.90
47382;DHT22;33128;51.580;5.170;2023-12-20T15:07:44;13.60;99.90
47382;DHT22;33128;51.580;5.170;2023-12-20T15:10:10;13.60;99.90
47382;DHT22;33128;51.580;5.170;2023-12-20T15:12:36;13.70;99.90
47382;DHT22;33128;51.580;5.170;2023-12-20T15:15:01;13.70;99.90
47382;DHT22;33128;51.580;5.170;2023-12-20T15:17:28;13.70;99.90
47382;DHT22;33128;51.580;5.170;2023-12-20T15:19:56;13.70;99.90
47382;DHT22;33128;51.580;5.170;2023-12-20T15:22:21;13.80;99.90
47382;DHT22;33128;51.580;5.170;2023-12-20T15:24:47;13.80;99.90
47382;DHT22;33128;51.580;5.170;2023-12-20T15:27:13;13.80;99.90
47382;DHT22;33128;51.580;5.170;2023-12-20T15:29:38;13.70;99.90
47382;DHT22;33128;51.580;5.170;2023-12-20T15:32:04;13.70;99.90
47382;DHT22;33128;51.580;5.170;2023-12-20T15:34:30;13.80;99.90
47382;DHT22;33128;51.580;5.170;2023-12-20T15:36:57;13.80;99.90